sensor_id;sensor_type;location;lat;lon;timestamp;pressure;altitude;pressure_sealevel;temperature;humidity
33151;BME280;19508;42.578;23.416;2022-12-29T00:01:54;94591.34;;;4.97;79.50
33151;BME280;19508;42.578;23.416;2022-12-29T00:04:20;94594.78;;;4.91;79.64
33151;BME280;19508;42.578;23.416;2022-12-29T00:06:46;94591.50;;;4.95;79.45
33151;BME280;19508;42.578;23.416;2022-12-29T00:09:12;94593.75;;;4.92;79.83
33151;BME280;19508;42.578;23.416;2022-12-29T00:11:38;94597.88;;;4.88;79.72
33151;BME280;19508;42.578;23.416;2022-12-29T00:14:03;94599.50;;;4.89;80.34
33151;BME280;19508;42.578;23.416;2022-12-29T00:16:47;94598.69;;;4.88;79.96
33151;BME280;19508;42.578;23.416;2022-12-29T00:19:13;94598.69;;;4.88;80.01
33151;BME280;19508;42.578;23.416;2022-12-29T00:21:58;94605.44;;;4.84;80.42
33151;BME280;19508;42.578;23.416;2022-12-29T00:24:43;94605.50;;;4.97;80.19
33151;BME280;19508;42.578;23.416;2022-12-29T00:27:30;94604.84;;;4.89;79.88
33151;BME280;19508;42.578;23.416;2022-12-29T00:30:17;94603.22;;;4.88;79.75
33151;BME280;19508;42.578;23.416;2022-12-29T00:33:12;94606.03;;;4.79;79.84
33151;BME280;19508;42.578;23.416;2022-12-29T00:36:04;94600.66;;;4.73;80.45
33151;BME280;19508;42.578;23.416;2022-12-29T00:38:36;94603.78;;;4.83;80.56
33151;BME280;19508;42.578;23.416;2022-12-29T00:41:21;94601.91;;;4.77;81.23
33151;BME280;19508;42.578;23.416;2022-12-29T00:44:06;94604.97;;;4.74;81.18
33151;BME280;19508;42.578;23.416;2022-12-29T00:46:33;94610.13;;;4.75;80.35
33151;BME280;19508;42.578;23.416;2022-12-29T00:49:00;94602.72;;;4.77;80.52
33151;BME280;19508;42.578;23.416;2022-12-29T00:51:44;94609.66;;;4.65;80.64
33151;BME280;19508;42.578;23.416;2022-12-29T00:54:10;94610.13;;;4.75;80.69
33151;BME280;19508;42.578;23.416;2022-12-29T00:56:36;94613.41;;;4.77;80.87
33151;BME280;19508;42.578;23.416;2022-12-29T00:59:04;94603.97;;;4.75;80.98
33151;BME280;19508;42.578;23.416;2022-12-29T01:01:30;94597.84;;;4.81;80.00
33151;BME280;19508;42.578;23.416;2022-12-29T01:03:56;94606.41;;;4.76;80.26
33151;BME280;19508;42.578;23.416;2022-12-29T01:06:22;94608.28;;;4.76;80.97
33151;BME280;19508;42.578;23.416;2022-12-29T01:08:57;94606.03;;;4.79;81.13
33151;BME280;19508;42.578;23.416;2022-12-29T01:11:41;94595.34;;;4.73;80.39
33151;BME280;19508;42.578;23.416;2022-12-29T01:14:07;94592.63;;;4.66;80.87
33151;BME280;19508;42.578;23.416;2022-12-29T01:16:33;94587.91;;;4.68;80.36
33151;BME280;19508;42.578;23.416;2022-12-29T01:18:59;94589.34;;;4.64;80.70
33151;BME280;19508;42.578;23.416;2022-12-29T01:21:25;94587.53;;;4.71;81.18
33151;BME280;19508;42.578;23.416;2022-12-29T01:23:50;94582.97;;;4.65;80.80
33151;BME280;19508;42.578;23.416;2022-12-29T01:26:16;94580.91;;;4.61;81.21
33151;BME280;19508;42.578;23.416;2022-12-29T01:28:42;94571.25;;;4.53;81.55
33151;BME280;19508;42.578;23.416;2022-12-29T01:31:13;94578.44;;;4.59;81.21
33151;BME280;19508;42.578;23.416;2022-12-29T01:33:39;94580.31;;;4.65;80.38
33151;BME280;19508;42.578;23.416;2022-12-29T01:36:07;94582.06;;;4.45;81.87
33151;BME280;19508;42.578;23.416;2022-12-29T01:38:34;94581.09;;;4.59;81.38
33151;BME280;19508;42.578;23.416;2022-12-29T01:41:00;94580.06;;;4.60;81.61
33151;BME280;19508;42.578;23.416;2022-12-29T01:43:53;94570.44;;;4.59;81.06
33151;BME280;19508;42.578;23.416;2022-12-29T01:49:12;94565.91;;;4.53;80.92
33151;BME280;19508;42.578;23.416;2022-12-29T01:51:41;94567.84;;;4.31;82.35
33151;BME280;19508;42.578;23.416;2022-12-29T01:54:13;94579.25;;;4.53;81.88
33151;BME280;19508;42.578;23.416;2022-12-29T01:56:42;94563.16;;;4.40;81.44
33151;BME280;19508;42.578;23.416;2022-12-29T01:59:11;94567.22;;;4.36;82.09
33151;BME280;19508;42.578;23.416;2022-12-29T02:01:37;94557.00;;;4.39;81.91
33151;BME280;19508;42.578;23.416;2022-12-29T02:04:03;94566.44;;;4.42;81.71
33151;BME280;19508;42.578;23.416;2022-12-29T02:06:33;94570.13;;;4.41;81.80
33151;BME280;19508;42.578;23.416;2022-12-29T02:09:00;94561.72;;;4.44;82.13
33151;BME280;19508;42.578;23.416;2022-12-29T02:11:28;94558.06;;;4.45;81.77
33151;BME280;19508;42.578;23.416;2022-12-29T02:13:54;94564.41;;;4.37;81.68
33151;BME280;19508;42.578;23.416;2022-12-29T02:22:05;94565.59;;;4.35;82.29
33151;BME280;19508;42.578;23.416;2022-12-29T02:27:55;94570.09;;;4.34;82.38
33151;BME280;19508;42.578;23.416;2022-12-29T02:33:21;94571.31;;;4.32;83.17
33151;BME280;19508;42.578;23.416;2022-12-29T02:39:13;94559.00;;;4.31;82.06
33151;BME280;19508;42.578;23.416;2022-12-29T02:42:13;94546.06;;;4.21;82.36
33151;BME280;19508;42.578;23.416;2022-12-29T02:49:59;94555.25;;;4.18;82.81
33151;BME280;19508;42.578;23.416;2022-12-29T02:52:37;94548.25;;;4.17;83.19
33151;BME280;19508;42.578;23.416;2022-12-29T02:55:04;94549.06;;;4.11;83.15
33151;BME280;19508;42.578;23.416;2022-12-29T02:57:35;94552.34;;;4.13;82.86
33151;BME280;19508;42.578;23.416;2022-12-29T03:05:16;94558.50;;;4.14;83.47
33151;BME280;19508;42.578;23.416;2022-12-29T03:08:04;94549.91;;;4.18;83.68
33151;BME280;19508;42.578;23.416;2022-12-29T03:21:39;94542.56;;;4.20;82.77
33151;BME280;19508;42.578;23.416;2022-12-29T03:24:28;94544.66;;;4.32;82.76
33151;BME280;19508;42.578;23.416;2022-12-29T03:26:58;94536.66;;;4.32;82.86
33151;BME280;19508;42.578;23.416;2022-12-29T03:29:24;94544.03;;;4.30;82.54
33151;BME280;19508;42.578;23.416;2022-12-29T03:31:52;94541.38;;;4.30;81.74
33151;BME280;19508;42.578;23.416;2022-12-29T03:34:20;94543.03;;;4.31;81.91
33151;BME280;19508;42.578;23.416;2022-12-29T03:37:17;94544.00;;;4.23;81.68
33151;BME280;19508;42.578;23.416;2022-12-29T03:39:41;94535.59;;;4.19;81.66
33151;BME280;19508;42.578;23.416;2022-12-29T03:42:11;94539.25;;;4.18;82.39
33151;BME280;19508;42.578;23.416;2022-12-29T03:44:41;94536.78;;;4.10;82.01
33151;BME280;19508;42.578;23.416;2022-12-29T03:47:07;94534.06;;;4.04;81.81
33151;BME280;19508;42.578;23.416;2022-12-29T03:49:33;94544.91;;;4.02;82.89
33151;BME280;19508;42.578;23.416;2022-12-29T03:51:58;94544.09;;;4.02;83.96
33151;BME280;19508;42.578;23.416;2022-12-29T03:54:24;94556.41;;;4.09;83.59
33151;BME280;19508;42.578;23.416;2022-12-29T03:56:50;94556.00;;;4.06;83.00
33151;BME280;19508;42.578;23.416;2022-12-29T03:59:15;94559.63;;;3.98;83.35
33151;BME280;19508;42.578;23.416;2022-12-29T04:01:41;94544.13;;;4.08;83.13
33151;BME280;19508;42.578;23.416;2022-12-29T04:04:06;94544.03;;;3.95;82.96
33151;BME280;19508;42.578;23.416;2022-12-29T04:06:31;94552.03;;;3.95;82.59
33151;BME280;19508;42.578;23.416;2022-12-29T04:08:57;94554.06;;;3.93;83.07
33151;BME280;19508;42.578;23.416;2022-12-29T04:11:22;94556.34;;;3.96;82.72
33151;BME280;19508;42.578;23.416;2022-12-29T04:13:48;94549.38;;;3.95;82.97
33151;BME280;19508;42.578;23.416;2022-12-29T04:16:14;94557.41;;;4.02;82.62
33151;BME280;19508;42.578;23.416;2022-12-29T04:18:39;94555.28;;;3.90;81.88
33151;BME280;19508;42.578;23.416;2022-12-29T04:21:05;94542.69;;;3.78;82.91
33151;BME280;19508;42.578;23.416;2022-12-29T04:23:33;94563.22;;;3.84;82.33
33151;BME280;19508;42.578;23.416;2022-12-29T04:25:59;94556.25;;;3.83;83.73
33151;BME280;19508;42.578;23.416;2022-12-29T04:28:25;94555.06;;;3.85;83.70
33151;BME280;19508;42.578;23.416;2022-12-29T04:30:51;94557.50;;;3.87;83.39
33151;BME280;19508;42.578;23.416;2022-12-29T04:33:17;94566.53;;;3.86;83.13
33151;BME280;19508;42.578;23.416;2022-12-29T04:35:43;94560.81;;;3.89;83.72
33151;BME280;19508;42.578;23.416;2022-12-29T04:38:09;94553.91;;;3.73;83.50
33151;BME280;19508;42.578;23.416;2022-12-29T04:40:35;94545.88;;;3.66;82.72
33151;BME280;19508;42.578;23.416;2022-12-29T04:43:00;94575.84;;;3.75;82.83
33151;BME280;19508;42.578;23.416;2022-12-29T04:45:25;94579.41;;;3.82;82.83
33151;BME280;19508;42.578;23.416;2022-12-29T04:47:51;94574.06;;;3.82;82.99
33151;BME280;19508;42.578;23.416;2022-12-29T04:50:22;94590.38;;;3.94;83.03
33151;BME280;19508;42.578;23.416;2022-12-29T04:52:48;94583.75;;;3.90;83.08
33151;BME280;19508;42.578;23.416;2022-12-29T04:55:14;94582.38;;;3.94;83.03
33151;BME280;19508;42.578;23.416;2022-12-29T04:57:39;94581.81;;;4.05;82.79
33151;BME280;19508;42.578;23.416;2022-12-29T05:00:05;94595.25;;;3.90;83.28
33151;BME280;19508;42.578;23.416;2022-12-29T05:02:31;94593.47;;;3.97;83.17
33151;BME280;19508;42.578;23.416;2022-12-29T05:04:57;94597.81;;;4.05;82.92
33151;BME280;19508;42.578;23.416;2022-12-29T05:07:22;94586.91;;;4.00;83.14
33151;BME280;19508;42.578;23.416;2022-12-29T05:09:48;94589.19;;;4.03;83.18
33151;BME280;19508;42.578;23.416;2022-12-29T05:12:13;94598.03;;;4.04;82.81
33151;BME280;19508;42.578;23.416;2022-12-29T05:14:38;94596.41;;;4.09;82.46
33151;BME280;19508;42.578;23.416;2022-12-29T05:17:04;94598.44;;;4.07;82.52
33151;BME280;19508;42.578;23.416;2022-12-29T05:19:29;94583.22;;;4.01;82.44
33151;BME280;19508;42.578;23.416;2022-12-29T05:21:55;94596.78;;;4.06;83.02
33151;BME280;19508;42.578;23.416;2022-12-29T05:24:20;94597.41;;;4.08;82.82
33151;BME280;19508;42.578;23.416;2022-12-29T05:26:45;94592.13;;;4.15;82.19
33151;BME280;19508;42.578;23.416;2022-12-29T05:29:11;94602.38;;;4.11;82.26
33151;BME280;19508;42.578;23.416;2022-12-29T05:31:36;94588.03;;;4.12;82.11
33151;BME280;19508;42.578;23.416;2022-12-29T05:34:02;94593.38;;;4.12;82.46
33151;BME280;19508;42.578;23.416;2022-12-29T05:36:28;94600.09;;;4.08;82.54
33151;BME280;19508;42.578;23.416;2022-12-29T05:38:53;94596.59;;;4.08;82.88
33151;BME280;19508;42.578;23.416;2022-12-29T05:41:18;94591.72;;;4.11;82.54
33151;BME280;19508;42.578;23.416;2022-12-29T05:43:44;94598.84;;;4.04;82.75
33151;BME280;19508;42.578;23.416;2022-12-29T05:46:09;94593.88;;;4.01;82.99
33151;BME280;19508;42.578;23.416;2022-12-29T05:48:35;94597.66;;;4.13;83.09
33151;BME280;19508;42.578;23.416;2022-12-29T05:51:00;94604.91;;;4.19;83.19
33151;BME280;19508;42.578;23.416;2022-12-29T05:53:26;94608.56;;;4.18;82.88
33151;BME280;19508;42.578;23.416;2022-12-29T05:55:51;94609.44;;;4.25;82.70
33151;BME280;19508;42.578;23.416;2022-12-29T05:58:17;94605.72;;;4.27;82.27
33151;BME280;19508;42.578;23.416;2022-12-29T06:00:43;94600.56;;;4.18;82.41
33151;BME280;19508;42.578;23.416;2022-12-29T06:03:09;94592.97;;;4.15;82.77
33151;BME280;19508;42.578;23.416;2022-12-29T06:05:34;94597.81;;;4.05;82.83
33151;BME280;19508;42.578;23.416;2022-12-29T06:07:59;94611.41;;;4.10;83.45
33151;BME280;19508;42.578;23.416;2022-12-29T06:10:25;94612.50;;;4.22;82.97
33151;BME280;19508;42.578;23.416;2022-12-29T06:12:51;94614.28;;;4.15;83.38
33151;BME280;19508;42.578;23.416;2022-12-29T06:15:16;94627.81;;;4.14;83.51
33151;BME280;19508;42.578;23.416;2022-12-29T06:17:42;94621.25;;;4.16;84.08
33151;BME280;19508;42.578;23.416;2022-12-29T06:20:08;94637.22;;;4.38;83.42
33151;BME280;19508;42.578;23.416;2022-12-29T06:22:34;94627.88;;;4.27;83.14
33151;BME280;19508;42.578;23.416;2022-12-29T06:25:00;94619.88;;;4.20;83.33
33151;BME280;19508;42.578;23.416;2022-12-29T06:27:26;94627.06;;;4.27;82.87
33151;BME280;19508;42.578;23.416;2022-12-29T06:29:52;94623.16;;;4.22;82.99
33151;BME280;19508;42.578;23.416;2022-12-29T06:32:17;94611.63;;;4.15;83.29
33151;BME280;19508;42.578;23.416;2022-12-29T06:34:42;94623.63;;;4.33;82.77
33151;BME280;19508;42.578;23.416;2022-12-29T06:37:10;94625.28;;;4.34;82.78
33151;BME280;19508;42.578;23.416;2022-12-29T06:39:35;94631.63;;;4.33;83.27
33151;BME280;19508;42.578;23.416;2022-12-29T06:42:01;94632.59;;;4.53;83.33
33151;BME280;19508;42.578;23.416;2022-12-29T06:44:26;94635.41;;;4.45;82.90
33151;BME280;19508;42.578;23.416;2022-12-29T06:46:52;94628.94;;;4.67;82.86
33151;BME280;19508;42.578;23.416;2022-12-29T06:49:18;94614.44;;;4.42;82.42
33151;BME280;19508;42.578;23.416;2022-12-29T06:51:43;94623.56;;;4.54;82.29
33151;BME280;19508;42.578;23.416;2022-12-29T06:54:09;94621.16;;;4.66;81.89
33151;BME280;19508;42.578;23.416;2022-12-29T06:56:34;94637.25;;;4.86;81.04
33151;BME280;19508;42.578;23.416;2022-12-29T06:58:59;94633.63;;;5.00;80.36
33151;BME280;19508;42.578;23.416;2022-12-29T07:01:26;94629.53;;;4.97;80.41
33151;BME280;19508;42.578;23.416;2022-12-29T07:03:51;94635.56;;;4.71;80.74
33151;BME280;19508;42.578;23.416;2022-12-29T07:06:17;94629.94;;;4.60;80.80
33151;BME280;19508;42.578;23.416;2022-12-29T07:08:42;94635.47;;;4.58;80.98
33151;BME280;19508;42.578;23.416;2022-12-29T07:11:08;94627.78;;;4.42;81.47
33151;BME280;19508;42.578;23.416;2022-12-29T07:13:34;94625.81;;;4.57;81.43
33151;BME280;19508;42.578;23.416;2022-12-29T07:15:59;94637.00;;;4.39;81.61
33151;BME280;19508;42.578;23.416;2022-12-29T07:18:24;94633.66;;;4.31;82.24
33151;BME280;19508;42.578;23.416;2022-12-29T07:20:50;94624.47;;;4.05;82.98
33151;BME280;19508;42.578;23.416;2022-12-29T07:23:15;94629.59;;;4.07;83.33
33151;BME280;19508;42.578;23.416;2022-12-29T07:25:40;94632.41;;;4.27;82.89
33151;BME280;19508;42.578;23.416;2022-12-29T07:28:06;94619.81;;;4.14;82.98
33151;BME280;19508;42.578;23.416;2022-12-29T07:30:32;94630.13;;;3.95;83.55
33151;BME280;19508;42.578;23.416;2022-12-29T07:32:57;94631.69;;;4.11;83.87
33151;BME280;19508;42.578;23.416;2022-12-29T07:35:22;94640.59;;;4.25;83.96
33151;BME280;19508;42.578;23.416;2022-12-29T07:37:48;94632.16;;;4.49;83.59
33151;BME280;19508;42.578;23.416;2022-12-29T07:40:13;94635.06;;;4.61;82.52
33151;BME280;19508;42.578;23.416;2022-12-29T07:42:39;94635.38;;;4.38;82.81
33151;BME280;19508;42.578;23.416;2022-12-29T07:45:05;94635.06;;;4.61;81.76
33151;BME280;19508;42.578;23.416;2022-12-29T07:47:30;94626.19;;;4.47;81.92
33151;BME280;19508;42.578;23.416;2022-12-29T07:49:56;94629.78;;;4.68;82.22
33151;BME280;19508;42.578;23.416;2022-12-29T07:52:21;94629.25;;;4.86;81.29
33151;BME280;19508;42.578;23.416;2022-12-29T07:54:46;94633.69;;;5.13;80.01
33151;BME280;19508;42.578;23.416;2022-12-29T07:57:12;94636.38;;;5.26;79.62
33151;BME280;19508;42.578;23.416;2022-12-29T07:59:37;94630.06;;;5.41;79.46
33151;BME280;19508;42.578;23.416;2022-12-29T08:02:03;94629.25;;;5.47;78.75
33151;BME280;19508;42.578;23.416;2022-12-29T08:04:28;94627.03;;;5.70;78.12
33151;BME280;19508;42.578;23.416;2022-12-29T08:06:53;94619.00;;;5.70;78.14
33151;BME280;19508;42.578;23.416;2022-12-29T08:09:19;94625.59;;;5.68;78.36
33151;BME280;19508;42.578;23.416;2022-12-29T08:11:44;94635.47;;;5.80;77.40
33151;BME280;19508;42.578;23.416;2022-12-29T08:14:10;94642.06;;;5.84;76.92
33151;BME280;19508;42.578;23.416;2022-12-29T08:16:35;94642.50;;;5.94;76.76
33151;BME280;19508;42.578;23.416;2022-12-29T08:19:01;94645.34;;;5.86;76.96
33151;BME280;19508;42.578;23.416;2022-12-29T08:21:27;94641.22;;;5.71;76.94
33151;BME280;19508;42.578;23.416;2022-12-29T08:23:53;94638.75;;;5.56;77.60
33151;BME280;19508;42.578;23.416;2022-12-29T08:26:18;94644.91;;;5.56;77.53
33151;BME280;19508;42.578;23.416;2022-12-29T08:28:44;94642.47;;;5.75;77.17
33151;BME280;19508;42.578;23.416;2022-12-29T08:31:09;94636.53;;;6.12;76.15
33151;BME280;19508;42.578;23.416;2022-12-29T08:33:35;94629.34;;;6.26;75.39
33151;BME280;19508;42.578;23.416;2022-12-29T08:36:01;94627.50;;;6.33;74.92
33151;BME280;19508;42.578;23.416;2022-12-29T08:38:28;94634.22;;;6.62;73.73
33151;BME280;19508;42.578;23.416;2022-12-29T08:40:54;94626.38;;;6.74;72.23
33151;BME280;19508;42.578;23.416;2022-12-29T08:43:19;94630.88;;;6.80;72.41
33151;BME280;19508;42.578;23.416;2022-12-29T08:45:45;94632.66;;;6.99;72.23
33151;BME280;19508;42.578;23.416;2022-12-29T08:48:10;94615.31;;;7.08;71.26
33151;BME280;19508;42.578;23.416;2022-12-29T08:50:35;94632.41;;;7.21;71.09
33151;BME280;19508;42.578;23.416;2022-12-29T08:53:01;94617.38;;;7.51;70.06
33151;BME280;19508;42.578;23.416;2022-12-29T08:55:26;94627.97;;;7.78;69.55
33151;BME280;19508;42.578;23.416;2022-12-29T08:57:52;94632.47;;;8.09;68.16
33151;BME280;19508;42.578;23.416;2022-12-29T09:00:17;94628.38;;;8.38;66.70
33151;BME280;19508;42.578;23.416;2022-12-29T09:02:43;94621.44;;;8.48;66.72
33151;BME280;19508;42.578;23.416;2022-12-29T09:05:09;94617.19;;;8.34;66.33
33151;BME280;19508;42.578;23.416;2022-12-29T09:07:35;94622.19;;;8.31;66.88
33151;BME280;19508;42.578;23.416;2022-12-29T09:10:01;94617.25;;;8.53;65.98
33151;BME280;19508;42.578;23.416;2022-12-29T09:12:26;94616.41;;;8.77;65.14
33151;BME280;19508;42.578;23.416;2022-12-29T09:14:53;94606.78;;;9.24;64.96
33151;BME280;19508;42.578;23.416;2022-12-29T09:17:18;94609.75;;;9.16;64.02
33151;BME280;19508;42.578;23.416;2022-12-29T09:20:03;94610.56;;;9.65;62.84
33151;BME280;19508;42.578;23.416;2022-12-29T09:22:28;94602.22;;;9.85;61.82
33151;BME280;19508;42.578;23.416;2022-12-29T09:24:54;94604.25;;;10.13;60.99
33151;BME280;19508;42.578;23.416;2022-12-29T09:27:19;94605.25;;;10.30;60.15
33151;BME280;19508;42.578;23.416;2022-12-29T09:29:45;94613.19;;;10.25;60.46
33151;BME280;19508;42.578;23.416;2022-12-29T09:32:10;94599.53;;;9.97;60.60
33151;BME280;19508;42.578;23.416;2022-12-29T09:34:36;94583.25;;;10.33;59.46
33151;BME280;19508;42.578;23.416;2022-12-29T09:37:01;94598.50;;;10.63;59.29
33151;BME280;19508;42.578;23.416;2022-12-29T09:39:26;94587.63;;;10.16;59.89
33151;BME280;19508;42.578;23.416;2022-12-29T09:42:19;94594.97;;;10.27;60.30
33151;BME280;19508;42.578;23.416;2022-12-29T09:48:11;94591.25;;;10.52;58.99
33151;BME280;19508;42.578;23.416;2022-12-29T09:50:41;94588.06;;;10.66;60.25
33151;BME280;19508;42.578;23.416;2022-12-29T09:55:48;94582.66;;;11.99;53.95
33151;BME280;19508;42.578;23.416;2022-12-29T09:58:24;94580.91;;;11.93;54.92
33151;BME280;19508;42.578;23.416;2022-12-29T10:01:21;94566.94;;;12.12;54.49
33151;BME280;19508;42.578;23.416;2022-12-29T10:03:54;94568.97;;;12.56;53.44
33151;BME280;19508;42.578;23.416;2022-12-29T10:06:22;94566.03;;;12.57;54.09
33151;BME280;19508;42.578;23.416;2022-12-29T10:09:00;94563.03;;;12.92;52.49
33151;BME280;19508;42.578;23.416;2022-12-29T10:11:30;94558.34;;;13.26;51.03
33151;BME280;19508;42.578;23.416;2022-12-29T10:17:35;94545.75;;;13.86;48.33
33151;BME280;19508;42.578;23.416;2022-12-29T10:25:24;94539.53;;;13.37;50.26
33151;BME280;19508;42.578;23.416;2022-12-29T10:27:53;94539.31;;;13.65;49.14
33151;BME280;19508;42.578;23.416;2022-12-29T10:30:21;94537.28;;;13.29;50.34
33151;BME280;19508;42.578;23.416;2022-12-29T10:33:15;94537.03;;;13.57;49.79
33151;BME280;19508;42.578;23.416;2022-12-29T10:35:44;94527.25;;;13.07;50.15
33151;BME280;19508;42.578;23.416;2022-12-29T10:38:27;94529.78;;;13.36;50.29
33151;BME280;19508;42.578;23.416;2022-12-29T10:41:00;94522.50;;;13.36;50.63
33151;BME280;19508;42.578;23.416;2022-12-29T10:43:30;94519.13;;;12.85;51.24
33151;BME280;19508;42.578;23.416;2022-12-29T10:46:00;94520.84;;;13.13;51.18
33151;BME280;19508;42.578;23.416;2022-12-29T10:48:32;94518.38;;;13.12;51.52
33151;BME280;19508;42.578;23.416;2022-12-29T10:51:01;94505.13;;;12.88;51.87
33151;BME280;19508;42.578;23.416;2022-12-29T10:53:51;94510.09;;;13.18;51.02
33151;BME280;19508;42.578;23.416;2022-12-29T10:56:40;94509.69;;;13.26;51.27
33151;BME280;19508;42.578;23.416;2022-12-29T10:59:23;94509.75;;;12.49;53.46
33151;BME280;19508;42.578;23.416;2022-12-29T11:07:16;94499.97;;;13.31;51.28
33151;BME280;19508;42.578;23.416;2022-12-29T11:09:43;94494.19;;;13.44;50.84
33151;BME280;19508;42.578;23.416;2022-12-29T11:12:23;94487.13;;;13.43;50.31
33151;BME280;19508;42.578;23.416;2022-12-29T11:15:07;94478.66;;;13.61;50.66
33151;BME280;19508;42.578;23.416;2022-12-29T11:17:52;94487.44;;;13.46;50.68
33151;BME280;19508;42.578;23.416;2022-12-29T11:20:36;94479.03;;;14.02;49.24
33151;BME280;19508;42.578;23.416;2022-12-29T11:26:16;94477.38;;;14.38;47.80
33151;BME280;19508;42.578;23.416;2022-12-29T11:28:47;94478.84;;;14.14;48.55
33151;BME280;19508;42.578;23.416;2022-12-29T11:31:17;94471.03;;;14.54;47.15
33151;BME280;19508;42.578;23.416;2022-12-29T11:33:43;94471.31;;;14.21;48.17
33151;BME280;19508;42.578;23.416;2022-12-29T11:36:16;94473.81;;;14.27;48.24
33151;BME280;19508;42.578;23.416;2022-12-29T11:38:47;94468.34;;;14.22;47.89
33151;BME280;19508;42.578;23.416;2022-12-29T11:41:24;94465.81;;;14.10;48.60
33151;BME280;19508;42.578;23.416;2022-12-29T11:43:51;94469.03;;;13.21;50.35
33151;BME280;19508;42.578;23.416;2022-12-29T11:46:22;94467.59;;;12.92;51.36
33151;BME280;19508;42.578;23.416;2022-12-29T11:48:49;94456.84;;;12.97;52.02
33151;BME280;19508;42.578;23.416;2022-12-29T11:51:23;94460.28;;;13.63;50.17
33151;BME280;19508;42.578;23.416;2022-12-29T11:53:54;94458.50;;;13.47;50.39
33151;BME280;19508;42.578;23.416;2022-12-29T11:56:34;94464.88;;;13.36;50.46
33151;BME280;19508;42.578;23.416;2022-12-29T12:02:30;94454.09;;;12.92;51.79
33151;BME280;19508;42.578;23.416;2022-12-29T12:07:43;94449.53;;;12.32;53.94
33151;BME280;19508;42.578;23.416;2022-12-29T12:10:18;94457.31;;;11.78;55.49
33151;BME280;19508;42.578;23.416;2022-12-29T12:15:34;94455.72;;;11.32;58.01
33151;BME280;19508;42.578;23.416;2022-12-29T12:26:37;94460.63;;;11.35;58.55
33151;BME280;19508;42.578;23.416;2022-12-29T12:29:19;94457.03;;;11.29;58.35
33151;BME280;19508;42.578;23.416;2022-12-29T12:31:54;94452.03;;;11.21;59.29
33151;BME280;19508;42.578;23.416;2022-12-29T12:34:30;94446.56;;;11.33;58.45
33151;BME280;19508;42.578;23.416;2022-12-29T12:40:40;94438.34;;;12.45;54.21
33151;BME280;19508;42.578;23.416;2022-12-29T12:45:33;94450.47;;;11.87;56.22
33151;BME280;19508;42.578;23.416;2022-12-29T12:48:09;94449.88;;;11.68;56.83
33151;BME280;19508;42.578;23.416;2022-12-29T12:53:24;94443.50;;;11.57;57.11
33151;BME280;19508;42.578;23.416;2022-12-29T12:56:10;94450.09;;;11.50;57.66
33151;BME280;19508;42.578;23.416;2022-12-29T12:58:56;94440.38;;;11.49;57.79
33151;BME280;19508;42.578;23.416;2022-12-29T13:01:40;94444.00;;;11.54;57.92
33151;BME280;19508;42.578;23.416;2022-12-29T13:23:26;94453.09;;;11.20;60.17
33151;BME280;19508;42.578;23.416;2022-12-29T13:28:53;94452.31;;;11.08;60.01
33151;BME280;19508;42.578;23.416;2022-12-29T13:36:58;94443.22;;;10.57;62.41
33151;BME280;19508;42.578;23.416;2022-12-29T13:39:31;94437.63;;;10.47;62.91
33151;BME280;19508;42.578;23.416;2022-12-29T13:41:58;94446.81;;;10.22;63.79
33151;BME280;19508;42.578;23.416;2022-12-29T13:44:34;94446.06;;;10.15;64.09
33151;BME280;19508;42.578;23.416;2022-12-29T13:47:11;94444.22;;;10.04;64.27
33151;BME280;19508;42.578;23.416;2022-12-29T13:49:41;94451.81;;;9.95;64.46
33151;BME280;19508;42.578;23.416;2022-12-29T13:58:32;94452.38;;;9.62;65.93
33151;BME280;19508;42.578;23.416;2022-12-29T14:01:55;94454.81;;;9.40;66.56
33151;BME280;19508;42.578;23.416;2022-12-29T14:04:03;94455.00;;;9.27;67.27
33151;BME280;19508;42.578;23.416;2022-12-29T14:06:35;94455.41;;;9.12;67.66
33151;BME280;19508;42.578;23.416;2022-12-29T14:11:57;94460.84;;;8.94;67.97
33151;BME280;19508;42.578;23.416;2022-12-29T14:14:25;94464.75;;;8.80;68.72
33151;BME280;19508;42.578;23.416;2022-12-29T14:16:53;94461.44;;;8.66;69.08
33151;BME280;19508;42.578;23.416;2022-12-29T14:19:30;94464.41;;;8.58;69.43
33151;BME280;19508;42.578;23.416;2022-12-29T14:22:02;94469.94;;;8.44;70.27
33151;BME280;19508;42.578;23.416;2022-12-29T14:32:37;94481.47;;;8.27;69.98
33151;BME280;19508;42.578;23.416;2022-12-29T14:35:38;94486.06;;;8.19;70.17
33151;BME280;19508;42.578;23.416;2022-12-29T14:38:25;94470.19;;;8.00;70.63
33151;BME280;19508;42.578;23.416;2022-12-29T14:40:52;94489.38;;;7.78;71.13
33151;BME280;19508;42.578;23.416;2022-12-29T14:43:26;94481.25;;;7.60;71.63
33151;BME280;19508;42.578;23.416;2022-12-29T14:45:55;94490.84;;;7.49;71.66
33151;BME280;19508;42.578;23.416;2022-12-29T14:48:29;94487.50;;;7.29;71.39
33151;BME280;19508;42.578;23.416;2022-12-29T14:50:55;94498.47;;;7.21;71.12
33151;BME280;19508;42.578;23.416;2022-12-29T14:56:09;94497.97;;;6.99;71.53
33151;BME280;19508;42.578;23.416;2022-12-29T14:58:51;94497.41;;;6.90;72.18
33151;BME280;19508;42.578;23.416;2022-12-29T15:01:22;94492.94;;;6.77;72.43
33151;BME280;19508;42.578;23.416;2022-12-29T15:03:49;94497.88;;;6.74;74.04
33151;BME280;19508;42.578;23.416;2022-12-29T15:06:17;94488.47;;;6.65;74.35
33151;BME280;19508;42.578;23.416;2022-12-29T15:08:51;94494.44;;;6.67;73.99
33151;BME280;19508;42.578;23.416;2022-12-29T15:11:22;94494.44;;;6.67;74.10
33151;BME280;19508;42.578;23.416;2022-12-29T15:13:48;94499.81;;;6.67;73.79
33151;BME280;19508;42.578;23.416;2022-12-29T15:16:33;94493.44;;;6.61;73.60
33151;BME280;19508;42.578;23.416;2022-12-29T15:19:01;94501.72;;;6.46;73.35
33151;BME280;19508;42.578;23.416;2022-12-29T15:21:29;94498.47;;;6.31;72.87
33151;BME280;19508;42.578;23.416;2022-12-29T15:23:55;94496.47;;;6.13;74.35
33151;BME280;19508;42.578;23.416;2022-12-29T15:26:21;94502.69;;;5.94;74.80
33151;BME280;19508;42.578;23.416;2022-12-29T15:28:51;94509.25;;;5.78;74.91